CST,Max TemperatureF,Mean TemperatureF,Min TemperatureF,Max Dew PointF,MeanDew PointF,Min DewpointF,Max Humidity, Mean Humidity, Min Humidity, Max Sea Level PressureIn, Mean Sea Level PressureIn, Min Sea Level PressureIn, Max VisibilityMiles, Mean VisibilityMiles, Min VisibilityMiles, Max Wind SpeedMPH, Mean Wind SpeedMPH, Max Gust SpeedMPH,PrecipitationIn, CloudCover, Events, WindDirDegrees
2013-1-1,71,64,57,63,54,47,94,74,58,30.18,30.05,29.89,10,10,10,20,11,24,0.02,6,Rain,335
2013-1-2,58,51,43,47,41,37,92,79,66,30.31,30.25,30.16,10,10,6,18,10,22,0.27,8,Rain,356
2013-1-3,50,46,42,38,36,33,82,66,54,30.39,30.34,30.28,10,10,10,16,11,18,0.00,8,,344
2013-1-4,48,46,43,43,41,33,92,74,56,30.45,30.38,30.34,10,7,2,20,13,24,0.06,8,Rain,324
2013-1-5,53,49,44,45,43,41,93,82,71,30.38,30.31,30.24,10,9,3,15,10,20,T,8,Rain,331
2013-1-6,66,57,48,45,42,38,80,61,36,30.37,30.30,30.25,10,10,10,16,8,20,0.00,5,,347
2013-1-7,68,58,47,55,48,42,86,69,52,30.30,30.14,29.98,10,10,10,12,6,15,0.00,5,,49
2013-1-8,72,67,61,66,62,55,90,82,73,29.98,29.86,29.70,10,10,7,41,12,48,0.22,5,Rain,141
2013-1-9,69,63,57,66,57,53,93,81,68,30.08,29.93,29.82,10,9,5,18,7,25,0.38,7,Rain,297
2013-1-10,75,64,52,57,54,48,93,69,44,30.10,30.06,30.01,10,10,7,12,4,15,T,1,,147
2013-1-11,80,67,53,66,57,52,100,81,62,30.06,29.94,29.79,10,4,0,23,9,29,0.00,2,Fog,139
2013-1-12,84,77,69,71,68,66,90,78,65,29.81,29.73,29.64,10,9,7,29,15,39,0.00,4,,154
2013-1-13,74,65,56,70,45,30,90,61,32,30.09,29.95,29.69,10,9,5,25,12,32,0.00,5,,328
2013-1-14,56,52,47,41,38,33,82,62,41,30.18,30.11,30.06,10,10,10,15,9,20,0.00,8,,23
2013-1-15,48,47,46,45,42,36,93,82,71,30.25,30.10,30.03,10,8,3,17,10,24,0.02,8,Rain,347
2013-1-16,61,51,40,35,23,11,65,40,15,30.41,30.32,30.25,10,10,10,24,12,33,0.00,2,,326
2013-1-17,70,55,40,38,30,22,64,44,24,30.48,30.42,30.37,10,10,10,21,7,25,0.00,0,Rain,326
2013-1-18,69,55,41,45,40,37,89,63,37,30.51,30.41,30.32,10,9,3,12,3,14,0.00,0,,157
2013-1-19,74,59,44,51,47,44,93,64,35,30.31,30.23,30.14,10,10,10,14,4,18,0.00,0,,118
2013-1-20,77,64,50,57,52,49,96,69,41,30.24,30.16,30.08,10,10,9,14,5,16,0.00,0,,130
2013-1-21,77,67,57,61,56,53,87,69,50,30.21,30.15,30.08,10,10,10,16,7,20,0.00,2,,95
2013-1-22,78,67,56,57,54,49,93,66,38,30.28,30.21,30.16,10,10,9,14,6,17,0.00,2,,77
2013-1-23,80,69,58,64,59,55,93,72,51,30.32,30.26,30.20,10,10,8,15,7,20,0.00,4,,115
2013-1-24,85,72,59,65,62,57,100,74,47,30.28,30.22,30.12,10,6,0,21,10,25,0.00,3,Fog,145
2013-1-25,85,74,62,63,62,61,100,72,44,30.17,30.10,30.01,10,8,2,26,15,32,T,2,,146
2013-1-26,83,73,63,63,60,51,93,65,36,30.12,30.07,30.00,10,10,10,25,14,32,0.00,3,,141
2013-1-27,84,75,65,68,65,62,93,71,48,30.05,30.00,29.91,10,10,9,30,17,38,0.00,6,,144
2013-1-28,86,79,72,69,67,66,90,73,55,30.01,29.96,29.87,10,10,8,30,20,38,0.00,7,,149
2013-1-29,90,81,72,68,67,62,84,63,41,29.86,29.75,29.62,10,10,9,29,16,38,0.00,4,,159
2013-1-30,74,61,48,68,27,12,90,50,10,30.27,30.01,29.72,10,10,9,32,16,43,0.00,1,,348
2013-1-31,72,60,47,43,34,27,61,40,19,30.34,30.27,30.20,10,10,10,13,5,18,0.00,0,,137